Current Conditions
Mostly Cloudy
Conditions



Pressure
29.9 (inHG) - 1012.52 (mb)
Visibility

9.9 (miles) - 16.0 (km)
Temperature
54  °F
Temperature
48  °F
Dewpoint
82  %
 Humidity
Wind Speed
15  mph
13  kts
24  km/h
6.7  m/s
Wind Direction
N
45°
E
90°
135°
S
180°
225°
W
270°
315°
 250°

West South
West
Airport Data
KPCW
Carl R Keller Field
Metar :KPCW 240535Z AUTO 25013G18KT 10SM BKN034 OVC050 12/09 A2990 RMK AO2
Fri 24th September 01:35 am
Raw Metar Info
Raw METAR is the most common format in the world for the transmission of observational weather data. It is highly standardized through the International Civil Aviation Organization (ICAO), which allows it to be understood throughout most of the world.
API Info
Data Provided by
https://www.checkwx.com/weather/KPCW

Aviation Weather providing METAR, TAF, AIRMET, SIGMET and OUTLOOK Weather Reports
© Info
CSS/SVG/PHP scripts were developed by weather34.com for use in the weather34 template © 2015-2021

Guide Info provided by Metar-Wikipedia